createdAt,value
2018-06-01T00:00:11.501Z,1019.33
2018-06-01T00:01:38.816Z,1019.37
2018-06-01T00:03:06.241Z,1019.36
2018-06-01T00:04:33.583Z,1019.30
2018-06-01T00:06:01.074Z,1019.27
2018-06-01T00:07:28.111Z,1019.29
2018-06-01T00:08:55.054Z,1019.34
2018-06-01T00:10:22.600Z,1019.36
2018-06-01T00:11:50.036Z,1019.30
2018-06-01T00:13:17.085Z,1019.25
2018-06-01T00:14:44.609Z,1019.26
2018-06-01T00:16:12.110Z,1019.27
2018-06-01T00:17:39.555Z,1019.25
2018-06-01T00:19:05.917Z,1019.24
2018-06-01T00:20:34.155Z,1019.25
2018-06-01T00:22:00.857Z,1019.30
2018-06-01T00:23:28.148Z,1019.28
2018-06-01T00:24:55.690Z,1019.29
2018-06-01T00:26:23.177Z,1019.23
2018-06-01T00:27:50.086Z,1019.22
2018-06-01T00:29:17.286Z,1019.21
2018-06-01T00:30:44.317Z,1019.24
2018-06-01T00:32:11.722Z,1019.24
2018-06-01T00:33:39.040Z,1019.22
2018-06-01T00:35:06.482Z,1019.25
2018-06-01T00:36:33.553Z,1019.23
2018-06-01T00:38:00.677Z,1019.25
2018-06-01T00:39:27.764Z,1019.28
2018-06-01T00:40:55.168Z,1019.35
2018-06-01T00:42:22.189Z,1019.43
2018-06-01T00:43:49.052Z,1019.38
2018-06-01T00:45:16.630Z,1019.31
2018-06-01T00:46:44.102Z,1019.30
2018-06-01T00:48:11.672Z,1019.28
2018-06-01T00:49:38.546Z,1019.24
2018-06-01T00:51:06.075Z,1019.23
2018-06-01T00:52:33.409Z,1019.29
2018-06-01T00:54:00.709Z,1019.32
2018-06-01T00:55:28.110Z,1019.24
2018-06-01T00:56:55.561Z,1019.20
2018-06-01T00:58:22.585Z,1019.20
2018-06-01T00:59:50.020Z,1019.22
2018-06-01T01:01:17.579Z,1019.16
2018-06-01T01:02:44.360Z,1019.13
2018-06-01T01:04:11.736Z,1019.14
2018-06-01T01:05:38.871Z,1019.08
2018-06-01T01:07:05.755Z,1019.05
2018-06-01T01:08:33.404Z,1019.06
2018-06-01T01:10:00.634Z,1019.07
2018-06-01T01:11:27.965Z,1019.11
2018-06-01T01:12:54.862Z,1019.06
2018-06-01T01:14:22.240Z,1019.03
2018-06-01T01:15:49.694Z,1018.99
2018-06-01T01:17:17.193Z,1018.97
2018-06-01T01:18:44.527Z,1018.99
2018-06-01T01:20:11.106Z,1018.96
2018-06-01T01:21:37.949Z,1018.96
2018-06-01T01:23:05.364Z,1018.95
2018-06-01T01:24:32.835Z,1018.94
2018-06-01T01:25:59.744Z,1018.94
2018-06-01T01:27:26.816Z,1018.93
2018-06-01T01:28:54.326Z,1018.92
2018-06-01T01:30:21.771Z,1018.95
2018-06-01T01:31:49.172Z,1018.92
2018-06-01T01:33:16.476Z,1018.96
2018-06-01T01:34:43.866Z,1018.96
2018-06-01T01:36:11.308Z,1018.95
2018-06-01T01:37:38.415Z,1018.94
2018-06-01T01:39:05.558Z,1018.94
2018-06-01T01:40:32.872Z,1018.95
2018-06-01T01:42:00.307Z,1018.91
2018-06-01T01:43:27.713Z,1018.94
2018-06-01T01:44:55.106Z,1018.92
2018-06-01T01:46:22.480Z,1018.93
2018-06-01T01:47:50.017Z,1018.93
2018-06-01T01:49:17.151Z,1018.95
2018-06-01T01:50:44.744Z,1018.95
2018-06-01T01:52:11.854Z,1018.92
2018-06-01T01:53:39.277Z,1018.92
2018-06-01T01:55:06.609Z,1018.96
2018-06-01T01:56:33.852Z,1018.94
2018-06-01T01:58:01.424Z,1018.89
2018-06-01T01:59:28.650Z,1018.90
2018-06-01T02:00:56.206Z,1018.88
2018-06-01T02:02:23.342Z,1018.86
2018-06-01T02:03:50.816Z,1018.85
2018-06-01T02:05:18.170Z,1018.84
2018-06-01T02:06:45.460Z,1018.82
2018-06-01T02:08:12.977Z,1018.82
2018-06-01T02:09:39.734Z,1018.83
2018-06-01T02:11:07.088Z,1018.84
2018-06-01T02:12:34.567Z,1018.83
2018-06-01T02:14:01.704Z,1018.81
2018-06-01T02:15:28.778Z,1018.83
2018-06-01T02:16:55.498Z,1018.85
2018-06-01T02:18:22.861Z,1018.85
2018-06-01T02:19:50.212Z,1018.86
2018-06-01T02:21:17.706Z,1018.84
2018-06-01T02:22:45.322Z,1018.80
2018-06-01T02:24:12.754Z,1018.79
2018-06-01T02:25:40.043Z,1018.80
2018-06-01T02:27:07.564Z,1018.86
2018-06-01T02:28:34.390Z,1018.90
2018-06-01T02:30:01.800Z,1018.95
2018-06-01T02:31:29.102Z,1018.99
2018-06-01T02:32:56.480Z,1018.91
2018-06-01T02:34:23.655Z,1018.90
2018-06-01T02:35:51.177Z,1018.86
2018-06-01T02:37:18.765Z,1018.78
2018-06-01T02:38:46.239Z,1018.78
2018-06-01T02:40:13.671Z,1018.79
2018-06-01T02:41:40.971Z,1018.79
2018-06-01T02:43:07.807Z,1018.75
2018-06-01T02:44:34.861Z,1018.75
2018-06-01T02:46:02.223Z,1018.74
2018-06-01T02:47:29.860Z,1018.81
2018-06-01T02:48:56.994Z,1018.83
2018-06-01T02:50:23.591Z,1018.82
2018-06-01T02:51:51.021Z,1018.83
2018-06-01T02:53:18.429Z,1018.87
2018-06-01T02:54:45.828Z,1018.84
2018-06-01T02:56:13.329Z,1018.83
2018-06-01T02:57:40.832Z,1018.85
2018-06-01T02:59:08.268Z,1018.85
2018-06-01T03:00:34.994Z,1018.86
2018-06-01T03:02:01.899Z,1018.89
2018-06-01T03:03:28.530Z,1018.91
2018-06-01T03:04:55.906Z,1018.92
2018-06-01T03:06:23.009Z,1018.88
2018-06-01T03:07:50.433Z,1018.89
2018-06-01T03:09:17.960Z,1018.92
2018-06-01T03:10:44.559Z,1018.95
2018-06-01T03:12:11.837Z,1018.97
2018-06-01T03:13:39.137Z,1018.95
2018-06-01T03:15:06.605Z,1018.95
2018-06-01T03:16:33.961Z,1018.95
2018-06-01T03:18:04.097Z,1018.94
2018-06-01T03:19:28.432Z,1018.96
2018-06-01T03:20:55.870Z,1018.98
2018-06-01T03:22:23.394Z,1019.00
2018-06-01T03:23:50.704Z,1019.05
2018-06-01T03:25:17.983Z,1019.01
2018-06-01T03:26:45.466Z,1019.01
2018-06-01T03:28:13.019Z,1019.01
2018-06-01T03:29:40.466Z,1019.01
2018-06-01T03:31:07.968Z,1019.01
2018-06-01T03:32:35.312Z,1019.00
2018-06-01T03:34:02.771Z,1019.02
2018-06-01T03:35:30.078Z,1019.05
2018-06-01T03:36:57.475Z,1019.06
2018-06-01T03:38:25.023Z,1019.05
2018-06-01T03:39:52.417Z,1019.07
2018-06-01T03:41:19.931Z,1019.07
2018-06-01T03:42:47.333Z,1019.04
2018-06-01T03:44:14.858Z,1019.01
2018-06-01T03:45:41.812Z,1019.01
2018-06-01T03:47:09.140Z,1019.01
2018-06-01T03:48:36.559Z,1019.00
2018-06-01T03:50:04.066Z,1018.97
2018-06-01T03:51:31.083Z,1018.94
2018-06-01T03:52:58.168Z,1018.92
2018-06-01T03:54:25.673Z,1018.91
2018-06-01T03:55:53.329Z,1018.88
2018-06-01T03:57:20.728Z,1018.87
2018-06-01T03:58:51.164Z,1018.85
2018-06-01T04:00:15.613Z,1018.85
2018-06-01T04:01:43.412Z,1018.84
2018-06-01T04:03:10.929Z,1018.85
2018-06-01T04:04:38.350Z,1018.86
2018-06-01T04:06:05.763Z,1018.88
2018-06-01T04:07:33.190Z,1018.87
2018-06-01T04:09:00.389Z,1018.86
2018-06-01T04:10:27.416Z,1018.87
2018-06-01T04:11:55.002Z,1018.85
2018-06-01T04:13:21.685Z,1018.83
2018-06-01T04:14:49.321Z,1018.85
2018-06-01T04:16:16.804Z,1018.88
2018-06-01T04:17:44.519Z,1018.92
2018-06-01T04:19:11.805Z,1018.95
2018-06-01T04:20:39.081Z,1018.96
2018-06-01T04:22:06.616Z,1018.95
2018-06-01T04:23:33.375Z,1018.95
2018-06-01T04:25:00.829Z,1018.97
2018-06-01T04:26:28.518Z,1018.99
2018-06-01T04:27:56.123Z,1018.97
2018-06-01T04:29:23.019Z,1018.97
2018-06-01T04:30:50.599Z,1018.95
2018-06-01T04:32:18.207Z,1018.98
2018-06-01T04:33:45.843Z,1018.96
2018-06-01T04:35:13.387Z,1018.94
2018-06-01T04:36:40.837Z,1018.94
2018-06-01T04:38:08.161Z,1018.95
2018-06-01T04:39:35.401Z,1018.93
2018-06-01T04:41:03.190Z,1018.94
2018-06-01T04:42:30.373Z,1018.93
2018-06-01T04:43:57.728Z,1018.93
2018-06-01T04:45:24.837Z,1018.91
2018-06-01T04:46:52.419Z,1018.87
2018-06-01T04:48:19.828Z,1018.83
2018-06-01T04:49:47.261Z,1018.82
2018-06-01T04:51:14.863Z,1018.82
2018-06-01T04:52:42.198Z,1018.79
2018-06-01T04:54:09.713Z,1018.79
2018-06-01T04:55:37.188Z,1018.79
2018-06-01T04:57:04.255Z,1018.78
2018-06-01T04:58:31.955Z,1018.78
2018-06-01T04:59:59.355Z,1018.75
2018-06-01T05:01:26.660Z,1018.76
2018-06-01T05:02:54.043Z,1018.77
2018-06-01T05:04:21.625Z,1018.77
2018-06-01T05:05:48.995Z,1018.75
2018-06-01T05:07:16.625Z,1018.75
2018-06-01T05:08:44.145Z,1018.75
2018-06-01T05:10:11.574Z,1018.76
2018-06-01T05:11:39.114Z,1018.76
2018-06-01T05:13:06.410Z,1018.76
2018-06-01T05:14:33.755Z,1018.70
2018-06-01T05:16:01.045Z,1018.71
2018-06-01T05:17:28.431Z,1018.67
2018-06-01T05:18:55.930Z,1018.70
2018-06-01T05:20:23.467Z,1018.70
2018-06-01T05:21:50.820Z,1018.74
2018-06-01T05:23:18.449Z,1018.75
2018-06-01T05:24:45.888Z,1018.77
2018-06-01T05:26:13.260Z,1018.82
2018-06-01T05:27:40.953Z,1018.86
2018-06-01T05:29:08.468Z,1018.86
2018-06-01T05:30:35.931Z,1018.86
2018-06-01T05:32:03.533Z,1018.79
2018-06-01T05:33:30.774Z,1018.84
2018-06-01T05:34:58.256Z,1018.86
2018-06-01T05:36:25.917Z,1018.87
2018-06-01T05:37:52.551Z,1018.87
2018-06-01T05:39:20.109Z,1018.83
2018-06-01T05:40:47.634Z,1018.81
2018-06-01T05:42:14.838Z,1018.84
2018-06-01T05:43:42.494Z,1018.78
2018-06-01T05:45:10.003Z,1018.73
2018-06-01T05:46:37.425Z,1018.71
2018-06-01T05:48:05.053Z,1018.68
2018-06-01T05:49:32.416Z,1018.66
2018-06-01T05:50:59.970Z,1018.63
2018-06-01T05:52:27.509Z,1018.64
2018-06-01T05:53:54.770Z,1018.67
2018-06-01T05:55:22.200Z,1018.63
2018-06-01T05:56:49.821Z,1018.64
2018-06-01T05:58:17.213Z,1018.68
2018-06-01T05:59:44.637Z,1018.64
2018-06-01T06:01:12.129Z,1018.61
2018-06-01T06:02:39.589Z,1018.62
2018-06-01T06:04:07.172Z,1018.59
2018-06-01T06:05:37.872Z,1018.54
2018-06-01T06:07:02.405Z,1018.52
2018-06-01T06:08:29.877Z,1018.54
2018-06-01T06:09:57.202Z,1018.53
2018-06-01T06:11:24.534Z,1018.54
2018-06-01T06:12:51.940Z,1018.54
2018-06-01T06:14:19.114Z,1018.55
2018-06-01T06:15:46.567Z,1018.52
2018-06-01T06:17:13.940Z,1018.53
2018-06-01T06:18:41.535Z,1018.52
2018-06-01T06:20:09.175Z,1018.53
2018-06-01T06:21:36.699Z,1018.55
2018-06-01T06:23:04.238Z,1018.53
2018-06-01T06:24:31.883Z,1018.51
2018-06-01T06:25:59.645Z,1018.49
2018-06-01T06:27:26.906Z,1018.48
2018-06-01T06:28:54.327Z,1018.47
2018-06-01T06:30:22.071Z,1018.44
2018-06-01T06:31:49.677Z,1018.38
2018-06-01T06:33:17.310Z,1018.37
2018-06-01T06:34:44.926Z,1018.35
2018-06-01T06:36:12.487Z,1018.35
2018-06-01T06:37:40.218Z,1018.35
2018-06-01T06:39:07.440Z,1018.35
2018-06-01T06:40:34.910Z,1018.34
2018-06-01T06:42:02.461Z,1018.30
2018-06-01T06:43:29.616Z,1018.29
2018-06-01T06:44:57.238Z,1018.27
2018-06-01T06:46:24.998Z,1018.24
2018-06-01T06:47:52.356Z,1018.18
2018-06-01T06:49:19.956Z,1018.18
2018-06-01T06:50:47.577Z,1018.21
2018-06-01T06:52:15.209Z,1018.23
2018-06-01T06:53:42.841Z,1018.25
2018-06-01T06:55:10.571Z,1018.24
2018-06-01T06:56:38.138Z,1018.24
2018-06-01T06:58:05.809Z,1018.24
2018-06-01T06:59:33.449Z,1018.23
2018-06-01T07:01:01.031Z,1018.25
2018-06-01T07:02:28.499Z,1018.23
2018-06-01T07:03:55.886Z,1018.25
2018-06-01T07:05:23.426Z,1018.24
2018-06-01T07:06:50.706Z,1018.24
2018-06-01T07:08:18.369Z,1018.18
2018-06-01T07:09:46.062Z,1018.18
2018-06-01T07:11:13.450Z,1018.13
2018-06-01T07:12:40.913Z,1018.17
2018-06-01T07:14:08.600Z,1018.15
2018-06-01T07:15:36.425Z,1018.18
2018-06-01T07:17:03.856Z,1018.19
2018-06-01T07:18:31.357Z,1018.18
2018-06-01T07:19:59.006Z,1018.18
2018-06-01T07:21:26.769Z,1018.19
2018-06-01T07:22:54.500Z,1018.20
2018-06-01T07:24:22.065Z,1018.19
2018-06-01T07:25:49.685Z,1018.19
2018-06-01T07:27:17.323Z,1018.20
2018-06-01T07:28:44.908Z,1018.17
2018-06-01T07:30:12.636Z,1018.16
2018-06-01T07:31:40.223Z,1018.15
2018-06-01T07:33:07.893Z,1018.11
2018-06-01T07:34:35.527Z,1018.10
2018-06-01T07:36:03.169Z,1018.08
2018-06-01T07:37:30.775Z,1018.09
2018-06-01T07:38:58.237Z,1018.08
2018-06-01T07:40:26.002Z,1018.04
2018-06-01T07:41:53.578Z,1018.04
2018-06-01T07:43:21.077Z,1018.05
2018-06-01T07:44:48.723Z,1018.05
2018-06-01T07:46:16.416Z,1018.07
2018-06-01T07:47:43.781Z,1018.06
2018-06-01T07:49:11.502Z,1018.08
2018-06-01T07:50:39.224Z,1018.10
2018-06-01T07:52:06.780Z,1018.12
2018-06-01T07:53:34.163Z,1018.16
2018-06-01T07:55:01.778Z,1018.17
2018-06-01T07:56:29.368Z,1018.16
2018-06-01T07:57:56.888Z,1018.17
2018-06-01T07:59:24.585Z,1018.17
2018-06-01T08:00:52.102Z,1018.17
2018-06-01T08:02:19.567Z,1018.24
2018-06-01T08:03:47.187Z,1018.24
2018-06-01T08:05:14.585Z,1018.22
2018-06-01T08:06:42.136Z,1018.24
2018-06-01T08:08:09.760Z,1018.24
2018-06-01T08:09:37.356Z,1018.21
2018-06-01T08:11:04.884Z,1018.22
2018-06-01T08:12:32.577Z,1018.21
2018-06-01T08:14:00.182Z,1018.23
2018-06-01T08:15:27.732Z,1018.18
2018-06-01T08:16:55.309Z,1018.19
2018-06-01T08:18:23.011Z,1018.19
2018-06-01T08:19:50.558Z,1018.18
2018-06-01T08:21:18.093Z,1018.18
2018-06-01T08:22:45.747Z,1018.19
2018-06-01T08:24:13.383Z,1018.16
2018-06-01T08:25:40.973Z,1018.15
2018-06-01T08:27:08.516Z,1018.14
2018-06-01T08:28:36.325Z,1018.13
2018-06-01T08:30:03.850Z,1018.13
2018-06-01T08:31:31.287Z,1018.10
2018-06-01T08:32:58.887Z,1018.12
2018-06-01T08:34:26.365Z,1018.12
2018-06-01T08:35:54.021Z,1018.08
2018-06-01T08:37:21.624Z,1018.09
2018-06-01T08:38:49.146Z,1018.10
2018-06-01T08:40:16.756Z,1018.08
2018-06-01T08:41:44.343Z,1018.07
2018-06-01T08:43:12.182Z,1018.07
2018-06-01T08:44:39.723Z,1018.07
2018-06-01T08:46:07.308Z,1018.06
2018-06-01T08:47:35.207Z,1018.07
2018-06-01T08:49:02.915Z,1018.08
2018-06-01T08:50:30.475Z,1018.08
2018-06-01T08:51:58.063Z,1018.10
2018-06-01T08:53:25.467Z,1018.11
2018-06-01T08:54:53.025Z,1018.12
2018-06-01T08:56:20.700Z,1018.12
2018-06-01T08:57:48.438Z,1018.10
2018-06-01T08:59:16.158Z,1018.09
2018-06-01T09:00:43.879Z,1018.09
2018-06-01T09:02:11.542Z,1018.06
2018-06-01T09:03:38.957Z,1018.06
2018-06-01T09:05:06.593Z,1018.04
2018-06-01T09:06:34.349Z,1017.97
2018-06-01T09:08:01.857Z,1018.00
2018-06-01T09:09:29.390Z,1017.94
2018-06-01T09:10:56.841Z,1017.97
2018-06-01T09:12:24.543Z,1017.97
2018-06-01T09:13:52.094Z,1017.97
2018-06-01T09:15:19.826Z,1017.99
2018-06-01T09:16:47.429Z,1017.99
2018-06-01T09:18:15.009Z,1018.03
2018-06-01T09:19:42.681Z,1018.00
2018-06-01T09:21:10.098Z,1018.01
2018-06-01T09:22:37.642Z,1018.01
2018-06-01T09:24:05.302Z,1018.07
2018-06-01T09:25:32.795Z,1018.02
2018-06-01T09:27:00.441Z,1018.05
2018-06-01T09:28:28.026Z,1018.05
2018-06-01T09:29:55.328Z,1018.04
2018-06-01T09:31:22.957Z,1018.04
2018-06-01T09:32:50.596Z,1018.05
2018-06-01T09:34:18.240Z,1018.09
2018-06-01T09:35:45.744Z,1018.12
2018-06-01T09:37:13.395Z,1018.14
2018-06-01T09:38:40.927Z,1018.14
2018-06-01T09:40:08.605Z,1018.11
2018-06-01T09:41:36.369Z,1018.05
2018-06-01T09:43:03.879Z,1018.06
2018-06-01T09:44:31.595Z,1018.11
2018-06-01T09:45:59.076Z,1018.09
2018-06-01T09:47:26.411Z,1018.08
2018-06-01T09:48:54.120Z,1018.11
2018-06-01T09:50:21.883Z,1018.12
2018-06-01T09:51:49.613Z,1018.14
2018-06-01T09:53:16.961Z,1018.12
2018-06-01T09:54:44.543Z,1018.13
2018-06-01T09:56:12.125Z,1018.08
2018-06-01T09:57:39.784Z,1018.05
2018-06-01T09:59:07.526Z,1018.03
2018-06-01T10:00:35.345Z,1017.99
2018-06-01T10:02:02.707Z,1017.94
2018-06-01T10:03:30.217Z,1017.97
2018-06-01T10:04:57.643Z,1017.93
2018-06-01T10:06:25.167Z,1017.96
2018-06-01T10:07:52.959Z,1017.97
2018-06-01T10:09:20.716Z,1017.98
2018-06-01T10:10:48.480Z,1017.95
2018-06-01T10:12:15.974Z,1017.93
2018-06-01T10:13:43.779Z,1017.92
2018-06-01T10:15:11.428Z,1017.90
2018-06-01T10:16:39.219Z,1017.87
2018-06-01T10:18:06.899Z,1017.93
2018-06-01T10:19:34.579Z,1017.98
2018-06-01T10:21:02.030Z,1017.99
2018-06-01T10:22:29.901Z,1017.96
2018-06-01T10:23:57.204Z,1017.96
2018-06-01T10:25:24.902Z,1017.95
2018-06-01T10:26:52.639Z,1017.94
2018-06-01T10:28:20.359Z,1017.92
2018-06-01T10:29:48.001Z,1017.96
2018-06-01T10:31:15.341Z,1017.91
2018-06-01T10:32:43.066Z,1017.95
2018-06-01T10:34:10.680Z,1017.91
2018-06-01T10:35:38.351Z,1017.96
2018-06-01T10:37:06.019Z,1017.94
2018-06-01T10:38:33.452Z,1017.95
2018-06-01T10:40:01.237Z,1017.89
2018-06-01T10:41:28.721Z,1017.92
2018-06-01T10:42:56.543Z,1017.94
2018-06-01T10:44:24.207Z,1017.88
2018-06-01T10:45:51.896Z,1017.88
2018-06-01T10:47:19.422Z,1017.85
2018-06-01T10:48:47.204Z,1017.90
2018-06-01T10:50:14.856Z,1017.88
2018-06-01T10:51:42.693Z,1017.87
2018-06-01T10:53:10.255Z,1017.89
2018-06-01T10:54:38.070Z,1017.84
2018-06-01T10:56:05.109Z,1017.83
2018-06-01T10:57:32.845Z,1017.75
2018-06-01T10:59:00.098Z,1017.71
2018-06-01T11:00:27.568Z,1017.74
2018-06-01T11:01:55.430Z,1017.68
2018-06-01T11:03:23.154Z,1017.67
2018-06-01T11:04:50.141Z,1017.67
2018-06-01T11:06:17.812Z,1017.62
2018-06-01T11:07:45.047Z,1017.60
2018-06-01T11:09:12.218Z,1017.54
2018-06-01T11:10:39.809Z,1017.57
2018-06-01T11:12:07.245Z,1017.58
2018-06-01T11:13:34.728Z,1017.52
2018-06-01T11:15:02.284Z,1017.51
2018-06-01T11:16:29.856Z,1017.51
2018-06-01T11:17:57.088Z,1017.50
2018-06-01T11:19:24.766Z,1017.47
2018-06-01T11:20:52.465Z,1017.48
2018-06-01T11:22:20.148Z,1017.47
2018-06-01T11:23:47.845Z,1017.50
2018-06-01T11:25:15.554Z,1017.48
2018-06-01T11:26:43.248Z,1017.45
2018-06-01T11:28:10.890Z,1017.45
2018-06-01T11:29:38.650Z,1017.44
2018-06-01T11:31:06.273Z,1017.47
2018-06-01T11:32:33.725Z,1017.45
2018-06-01T11:34:01.410Z,1017.44
2018-06-01T11:35:29.042Z,1017.43
2018-06-01T11:36:56.506Z,1017.45
2018-06-01T11:38:24.311Z,1017.45
2018-06-01T11:39:51.905Z,1017.51
2018-06-01T11:41:19.524Z,1017.48
2018-06-01T11:42:47.152Z,1017.44
2018-06-01T11:44:14.728Z,1017.50
2018-06-01T11:45:42.492Z,1017.49
2018-06-01T11:47:10.305Z,1017.50
2018-06-01T11:48:38.031Z,1017.44
2018-06-01T11:50:04.766Z,1017.44
2018-06-01T11:51:32.565Z,1017.41
2018-06-01T11:53:00.199Z,1017.42
2018-06-01T11:54:27.764Z,1017.40
2018-06-01T11:55:55.444Z,1017.35
2018-06-01T11:57:23.055Z,1017.37
2018-06-01T11:58:50.692Z,1017.30
2018-06-01T12:00:18.026Z,1017.26
2018-06-01T12:01:45.769Z,1017.25
2018-06-01T12:03:21.497Z,1017.24
2018-06-01T12:04:41.112Z,1017.28
2018-06-01T12:06:08.804Z,1017.25
2018-06-01T12:07:36.310Z,1017.24
2018-06-01T12:09:03.784Z,1017.19
2018-06-01T12:10:31.355Z,1017.20
2018-06-01T12:11:59.097Z,1017.13
2018-06-01T12:13:26.503Z,1017.15
2018-06-01T12:14:54.343Z,1017.08
2018-06-01T12:16:22.034Z,1017.08
2018-06-01T12:17:49.735Z,1017.06
2018-06-01T12:19:17.433Z,1017.05
2018-06-01T12:20:45.114Z,1017.05
2018-06-01T12:22:13.028Z,1017.02
2018-06-01T12:23:40.490Z,1017.02
2018-06-01T12:25:08.107Z,1016.99
2018-06-01T12:26:35.923Z,1016.89
2018-06-01T12:28:03.557Z,1016.84
2018-06-01T12:29:31.212Z,1016.84
2018-06-01T12:30:58.755Z,1016.79
2018-06-01T12:32:26.529Z,1016.82
2018-06-01T12:33:54.158Z,1016.80
2018-06-01T12:35:21.855Z,1016.87
2018-06-01T12:36:49.556Z,1016.89
2018-06-01T12:38:17.131Z,1016.81
2018-06-01T12:39:45.016Z,1016.77
2018-06-01T12:41:12.777Z,1016.78
2018-06-01T12:42:40.321Z,1016.73
2018-06-01T12:44:07.908Z,1016.70
2018-06-01T12:45:35.584Z,1016.76
2018-06-01T12:47:03.151Z,1016.80
2018-06-01T12:48:30.816Z,1016.79
2018-06-01T12:49:58.415Z,1016.80
2018-06-01T12:51:25.952Z,1016.78
2018-06-01T12:52:53.678Z,1016.78
2018-06-01T12:54:21.338Z,1016.79
2018-06-01T12:55:49.102Z,1016.77
2018-06-01T12:57:16.768Z,1016.78
2018-06-01T12:58:44.532Z,1016.80
2018-06-01T13:00:12.127Z,1016.80
2018-06-01T13:01:39.705Z,1016.83
2018-06-01T13:03:07.388Z,1016.78
2018-06-01T13:04:35.246Z,1016.81
2018-06-01T13:06:02.904Z,1016.74
2018-06-01T13:07:30.490Z,1016.73
2018-06-01T13:08:58.372Z,1016.73
2018-06-01T13:10:26.064Z,1016.72
2018-06-01T13:11:53.807Z,1016.72
2018-06-01T13:13:21.434Z,1016.72
2018-06-01T13:14:49.114Z,1016.72
2018-06-01T13:16:16.823Z,1016.74
2018-06-01T13:17:44.306Z,1016.75
2018-06-01T13:19:11.939Z,1016.73
2018-06-01T13:20:39.563Z,1016.70
2018-06-01T13:22:07.368Z,1016.68
2018-06-01T13:23:35.166Z,1016.67
2018-06-01T13:25:02.825Z,1016.68
2018-06-01T13:26:30.582Z,1016.67
2018-06-01T13:27:58.188Z,1016.67
2018-06-01T13:29:25.909Z,1016.65
2018-06-01T13:30:53.639Z,1016.61
2018-06-01T13:32:21.415Z,1016.63
2018-06-01T13:33:49.075Z,1016.60
2018-06-01T13:35:16.772Z,1016.63
2018-06-01T13:36:44.382Z,1016.59
2018-06-01T13:38:12.232Z,1016.55
2018-06-01T13:39:39.759Z,1016.54
2018-06-01T13:41:07.370Z,1016.57
2018-06-01T13:42:35.146Z,1016.58
2018-06-01T13:44:02.898Z,1016.54
2018-06-01T13:45:30.407Z,1016.55
2018-06-01T13:46:58.032Z,1016.51
2018-06-01T13:48:25.810Z,1016.53
2018-06-01T13:49:54.237Z,1016.50
2018-06-01T13:51:21.291Z,1016.53
2018-06-01T13:52:48.935Z,1016.52
2018-06-01T13:54:16.373Z,1016.53
2018-06-01T13:55:44.078Z,1016.51
2018-06-01T13:57:11.820Z,1016.49
2018-06-01T13:58:39.432Z,1016.48
2018-06-01T14:00:07.057Z,1016.50
2018-06-01T14:01:34.745Z,1016.48
2018-06-01T14:03:02.309Z,1016.48
2018-06-01T14:04:29.979Z,1016.46
2018-06-01T14:05:57.506Z,1016.45
2018-06-01T14:07:25.180Z,1016.43
2018-06-01T14:08:52.869Z,1016.40
2018-06-01T14:10:20.498Z,1016.37
2018-06-01T14:11:48.126Z,1016.34
2018-06-01T14:13:15.983Z,1016.29
2018-06-01T14:14:43.684Z,1016.26
2018-06-01T14:16:11.371Z,1016.22
2018-06-01T14:17:38.979Z,1016.22
2018-06-01T14:19:06.694Z,1016.20
2018-06-01T14:20:34.553Z,1016.17
2018-06-01T14:22:02.144Z,1016.13
2018-06-01T14:23:29.560Z,1016.10
2018-06-01T14:24:57.263Z,1016.11
2018-06-01T14:26:24.958Z,1016.07
2018-06-01T14:27:52.625Z,1016.06
2018-06-01T14:29:20.133Z,1016.03
2018-06-01T14:30:47.942Z,1016.01
2018-06-01T14:32:15.708Z,1015.98
2018-06-01T14:33:43.389Z,1015.95
2018-06-01T14:35:11.152Z,1015.91
2018-06-01T14:36:38.767Z,1015.89
2018-06-01T14:38:06.454Z,1015.90
2018-06-01T14:39:34.177Z,1015.87
2018-06-01T14:41:01.781Z,1015.83
2018-06-01T14:42:29.457Z,1015.79
2018-06-01T14:43:56.750Z,1015.75
2018-06-01T14:45:24.502Z,1015.74
2018-06-01T14:46:52.039Z,1015.76
2018-06-01T14:48:19.644Z,1015.75
2018-06-01T14:49:47.314Z,1015.73
2018-06-01T14:51:15.074Z,1015.72
2018-06-01T14:52:42.855Z,1015.70
2018-06-01T14:54:10.575Z,1015.72
2018-06-01T14:55:38.223Z,1015.72
2018-06-01T14:57:05.866Z,1015.70
2018-06-01T14:58:33.615Z,1015.71
2018-06-01T15:00:01.011Z,1015.73
2018-06-01T15:01:28.800Z,1015.75
2018-06-01T15:02:56.438Z,1015.80
2018-06-01T15:04:24.205Z,1015.81
2018-06-01T15:05:51.830Z,1015.81
2018-06-01T15:07:19.710Z,1015.77
2018-06-01T15:08:47.444Z,1015.80
2018-06-01T15:10:15.021Z,1015.80
2018-06-01T15:11:42.798Z,1015.80
2018-06-01T15:13:10.456Z,1015.79
2018-06-01T15:14:38.137Z,1015.78
2018-06-01T15:16:05.926Z,1015.78
2018-06-01T15:17:33.528Z,1015.78
2018-06-01T15:19:01.315Z,1015.77
2018-06-01T15:20:28.787Z,1015.75
2018-06-01T15:21:56.433Z,1015.74
2018-06-01T15:23:24.162Z,1015.73
2018-06-01T15:24:51.925Z,1015.71
2018-06-01T15:26:19.635Z,1015.70
2018-06-01T15:27:47.311Z,1015.70
2018-06-01T15:29:15.084Z,1015.71
2018-06-01T15:30:42.777Z,1015.69
2018-06-01T15:32:10.483Z,1015.70
2018-06-01T15:33:38.196Z,1015.68
2018-06-01T15:35:05.763Z,1015.67
2018-06-01T15:36:33.344Z,1015.66
2018-06-01T15:38:00.954Z,1015.65
2018-06-01T15:39:28.776Z,1015.66
2018-06-01T15:40:56.605Z,1015.71
2018-06-01T15:42:24.248Z,1015.71
2018-06-01T15:43:51.937Z,1015.75
2018-06-01T15:45:19.637Z,1015.73
2018-06-01T15:46:47.261Z,1015.74
2018-06-01T15:48:15.049Z,1015.76
2018-06-01T15:49:42.815Z,1015.77
2018-06-01T15:51:10.479Z,1015.79
2018-06-01T15:52:38.036Z,1015.76
2018-06-01T15:54:05.767Z,1015.77
2018-06-01T15:55:33.476Z,1015.79
2018-06-01T15:57:01.223Z,1015.76
2018-06-01T15:58:28.539Z,1015.77
2018-06-01T15:59:56.361Z,1015.73
2018-06-01T16:01:24.065Z,1015.71
2018-06-01T16:02:51.710Z,1015.72
2018-06-01T16:04:19.238Z,1015.72
2018-06-01T16:05:46.998Z,1015.69
2018-06-01T16:07:14.642Z,1015.71
2018-06-01T16:08:42.398Z,1015.71
2018-06-01T16:10:10.201Z,1015.69
2018-06-01T16:11:37.907Z,1015.67
2018-06-01T16:13:05.666Z,1015.68
2018-06-01T16:14:33.253Z,1015.70
2018-06-01T16:16:00.990Z,1015.70
2018-06-01T16:17:28.587Z,1015.72
2018-06-01T16:18:56.277Z,1015.74
2018-06-01T16:20:24.041Z,1015.77
2018-06-01T16:21:51.749Z,1015.79
2018-06-01T16:23:19.429Z,1015.83
2018-06-01T16:24:47.095Z,1015.86
2018-06-01T16:26:14.647Z,1015.91
2018-06-01T16:27:42.387Z,1015.92
2018-06-01T16:29:10.036Z,1015.92
2018-06-01T16:30:37.594Z,1015.94
2018-06-01T16:32:05.265Z,1015.95
2018-06-01T16:33:32.927Z,1015.94
2018-06-01T16:35:00.463Z,1015.96
2018-06-01T16:36:28.150Z,1015.93
2018-06-01T16:37:56.006Z,1015.95
2018-06-01T16:39:23.631Z,1015.96
2018-06-01T16:40:51.386Z,1015.98
2018-06-01T16:42:19.054Z,1016.01
2018-06-01T16:43:46.648Z,1016.05
2018-06-01T16:45:14.259Z,1016.05
2018-06-01T16:46:41.963Z,1016.05
2018-06-01T16:48:09.468Z,1016.04
2018-06-01T16:49:37.041Z,1016.04
2018-06-01T16:51:04.596Z,1016.02
2018-06-01T16:52:32.384Z,1016.04
2018-06-01T16:54:00.012Z,1016.03
2018-06-01T16:55:27.598Z,1016.03
2018-06-01T16:56:55.293Z,1016.05
2018-06-01T16:58:23.041Z,1016.07
2018-06-01T16:59:50.776Z,1016.07
2018-06-01T17:01:18.499Z,1016.07
2018-06-01T17:02:46.159Z,1016.05
2018-06-01T17:04:13.769Z,1016.04
2018-06-01T17:05:41.499Z,1016.04
2018-06-01T17:07:08.730Z,1016.03
2018-06-01T17:08:36.332Z,1016.03
2018-06-01T17:10:03.827Z,1016.06
2018-06-01T17:11:30.505Z,1016.09
2018-06-01T17:12:58.018Z,1016.13
2018-06-01T17:14:25.741Z,1016.15
2018-06-01T17:15:53.393Z,1016.20
2018-06-01T17:17:20.712Z,1016.22
2018-06-01T17:18:48.598Z,1016.31
2018-06-01T17:20:16.296Z,1016.35
2018-06-01T17:21:43.511Z,1016.36
2018-06-01T17:23:11.097Z,1016.38
2018-06-01T17:24:38.794Z,1016.37
2018-06-01T17:26:06.509Z,1016.38
2018-06-01T17:27:34.083Z,1016.40
2018-06-01T17:29:01.605Z,1016.38
2018-06-01T17:30:28.874Z,1016.39
2018-06-01T17:31:56.586Z,1016.40
2018-06-01T17:33:23.946Z,1016.39
2018-06-01T17:34:51.690Z,1016.39
2018-06-01T17:36:19.348Z,1016.37
2018-06-01T17:37:47.078Z,1016.35